Time;durP1;ratioP1;P1;durP2;ratioP2;P2;SDS_P1;SDS_P2;PMS_P1;PMS_P2;Temp;Humidity;BMP_temperature;BMP_pressure;BME280_temperature;BME280_humidity;BME280_pressure;Samples;Min_cycle;Max_cycle;Signal;HPM_P1;HPM_P2
2021/04/01 00:00:56;;;;;;;7.60;3.60;;;14.50;72.70;;;;;;4993098;28;20045;-68
2021/04/01 00:04:01;;;;;;;3.60;2.10;;;14.50;72.70;;;;;;4993130;28;20108;-68
2021/04/01 00:07:05;;;;;;;3.50;2.50;;;14.50;72.70;;;;;;4977341;28;20041;-68
2021/04/01 00:10:14;;;;;;;5.70;2.47;;;14.60;72.10;;;;;;4992721;28;20480;-68
2021/04/01 00:13:19;;;;;;;10.13;2.83;;;14.60;70.90;;;;;;4993265;28;20050;-68
2021/04/01 00:16:23;;;;;;;7.95;2.83;;;14.60;71.10;;;;;;4992034;28;20057;-68
2021/04/01 00:19:28;;;;;;;3.55;2.40;;;14.60;71.90;;;;;;4993334;28;20049;-68
2021/04/01 00:22:32;;;;;;;4.93;2.78;;;14.40;73.60;;;;;;4979051;28;20053;-68
2021/04/01 00:26:30;;;;;;;7.05;3.08;;;14.20;74.20;;;;;;4992125;28;20041;-68
2021/04/01 00:29:35;;;;;;;4.30;2.80;;;14.10;75.60;;;;;;4992352;28;20492;-68
2021/04/01 00:32:39;;;;;;;8.63;3.08;;;14.00;76.20;;;;;;4979298;28;20484;-68
2021/04/01 00:35:43;;;;;;;10.10;3.40;;;14.00;76.60;;;;;;4991418;28;20049;-68
2021/04/01 00:38:47;;;;;;;7.93;3.17;;;13.90;77.60;;;;;;4992059;28;20049;-68
2021/04/01 00:41:51;;;;;;;6.30;3.20;;;13.80;78.10;;;;;;4985638;28;20049;-68
2021/04/01 00:45:07;;;;;;;6.65;3.03;;;13.70;78.50;;;;;;4992372;28;20618;-68
2021/04/01 00:48:11;;;;;;;7.97;3.58;;;13.50;79.60;;;;;;4991094;28;20045;-68
2021/04/01 00:51:15;;;;;;;5.50;3.80;;;13.40;80.60;;;;;;4991256;28;20038;-68
2021/04/01 00:54:19;;;;;;;5.82;3.70;;;13.30;81.60;;;;;;4990994;28;20537;-68
2021/04/01 00:57:23;;;;;;;8.95;4.43;;;13.30;82.60;;;;;;4990707;28;20057;-68
2021/04/01 01:00:32;;;;;;;9.48;5.13;;;13.20;83.90;;;;;;4978282;28;20496;-68
2021/04/01 01:03:36;;;;;;;8.50;4.55;;;13.20;86.20;;;;;;4991567;28;20049;-68
2021/04/01 01:06:41;;;;;;;10.65;4.63;;;13.30;87.00;;;;;;4989738;28;20069;-68
2021/04/01 01:09:45;;;;;;;8.05;4.70;;;13.20;87.90;;;;;;4991453;28;20050;-67
2021/04/01 01:12:51;;;;;;;7.50;4.95;;;13.20;88.60;;;;;;4991700;28;20049;-68
2021/04/01 01:15:56;;;;;;;13.00;6.05;;;13.20;90.10;;;;;;4987107;28;20049;-68
2021/04/01 01:19:01;;;;;;;13.63;5.95;;;13.20;91.10;;;;;;4989668;28;20046;-68
2021/04/01 01:22:08;;;;;;;12.57;5.18;;;13.20;91.40;;;;;;4989074;28;20041;-68
2021/04/01 01:25:13;;;;;;;11.52;4.75;;;13.10;91.80;;;;;;4990807;28;20034;-68
2021/04/01 01:28:17;;;;;;;11.05;5.15;;;13.00;92.30;;;;;;4991190;28;20053;-68
2021/04/01 01:31:22;;;;;;;6.65;4.70;;;13.00;92.80;;;;;;4991228;28;20433;-69
2021/04/01 01:34:27;;;;;;;11.35;4.55;;;12.90;92.90;;;;;;4991364;28;20122;-68
2021/04/01 01:37:32;;;;;;;9.77;4.45;;;12.90;92.90;;;;;;4977590;28;20042;-68
2021/04/01 01:40:37;;;;;;;7.07;3.55;;;12.90;92.90;;;;;;4991039;28;20041;-68
2021/04/01 01:43:41;;;;;;;8.63;4.30;;;12.90;92.70;;;;;;4991312;28;20492;-68
2021/04/01 01:46:45;;;;;;;7.85;4.03;;;12.80;93.00;;;;;;4990177;28;20540;-68
2021/04/01 01:49:49;;;;;;;6.57;3.58;;;12.80;92.70;;;;;;4991171;28;20437;-68
2021/04/01 01:52:54;;;;;;;5.13;3.45;;;12.80;92.70;;;;;;4979896;28;20049;-68
2021/04/01 01:55:59;;;;;;;7.05;3.72;;;12.80;92.50;;;;;;4994564;28;20393;-68
2021/04/01 01:59:03;;;;;;;6.93;3.20;;;12.90;92.50;;;;;;4994252;28;20089;-68
2021/04/01 02:02:08;;;;;;;8.60;3.63;;;12.90;92.50;;;;;;4995024;28;20370;-68
2021/04/01 02:05:12;;;;;;;5.30;2.60;;;12.90;92.20;;;;;;4994289;28;20037;-68
2021/04/01 02:08:17;;;;;;;5.35;2.83;;;12.90;92.20;;;;;;4982236;28;20041;-69
2021/04/01 02:11:21;;;;;;;3.35;2.58;;;12.90;92.10;;;;;;4994527;28;20393;-68
2021/04/01 02:14:26;;;;;;;7.57;2.75;;;12.90;91.80;;;;;;4994997;28;20045;-68
2021/04/01 02:17:34;;;;;;;7.40;2.75;;;12.90;91.70;;;;;;4993512;28;20053;-69
2021/04/01 02:20:48;;;;;;;7.63;2.70;;;12.80;91.70;;;;;;4995040;28;20041;-68
2021/04/01 02:23:53;;;;;;;4.90;3.08;;;12.90;91.70;;;;;;4994881;28;20057;-68
2021/04/01 02:26:59;;;;;;;8.80;3.50;;;12.80;92.20;;;;;;4981332;28;20472;-69
2021/04/01 02:30:04;;;;;;;9.15;4.47;;;12.70;92.70;;;;;;4993784;28;20049;-69
2021/04/01 02:33:09;;;;;;;9.73;5.10;;;12.60;93.90;;;;;;4994282;28;20049;-68
2021/04/01 02:36:14;;;;;;;8.25;4.78;;;12.60;94.60;;;;;;4993143;28;20693;-68
2021/04/01 02:39:18;;;;;;;13.63;5.38;;;12.50;94.90;;;;;;4985298;28;20490;-68
2021/04/01 02:42:22;;;;;;;11.70;4.95;;;12.50;95.80;;;;;;4992340;28;20421;-69
2021/04/01 02:45:26;;;;;;;7.82;5.15;;;12.40;96.40;;;;;;4993844;28;20041;-68
2021/04/01 02:48:31;;;;;;;10.30;5.22;;;12.40;96.60;;;;;;4993898;28;20061;-68
2021/04/01 02:51:35;;;;;;;10.75;5.45;;;12.40;96.80;;;;;;4993510;28;20479;-68
2021/04/01 02:54:40;;;;;;;12.10;5.88;;;12.30;97.00;;;;;;4994468;28;20066;-68
2021/04/01 02:57:44;;;;;;;14.02;5.18;;;12.30;97.70;;;;;;4982849;28;20041;-68
2021/04/01 03:00:48;;;;;;;6.22;4.43;;;12.20;97.50;;;;;;4994101;28;20393;-68
2021/04/01 03:03:55;;;;;;;9.40;4.75;;;12.20;98.00;;;;;;4993660;28;20049;-69
2021/04/01 03:07:00;;;;;;;7.18;4.80;;;12.20;98.40;;;;;;4992217;28;20057;-68
2021/04/01 03:10:09;;;;;;;14.38;5.53;;;12.10;98.30;;;;;;4993465;28;20049;-68
2021/04/01 03:13:14;;;;;;;10.07;4.55;;;11.90;98.60;;;;;;4994027;28;20049;-68
2021/04/01 03:16:18;;;;;;;108.88;56.00;;;11.80;99.20;;;;;;4980807;28;20373;-68
2021/04/01 03:19:22;;;;;;;70.65;35.42;;;11.70;99.50;;;;;;4993382;28;20042;-68
2021/04/01 03:22:27;;;;;;;137.88;65.70;;;11.80;99.60;;;;;;4992550;28;20053;-68
2021/04/01 03:25:31;;;;;;;10.45;7.15;;;11.80;99.70;;;;;;4992804;28;20890;-68
2021/04/01 03:28:35;;;;;;;9.55;4.88;;;11.90;99.80;;;;;;4980064;28;20061;-67
2021/04/01 03:31:40;;;;;;;10.50;4.95;;;11.90;99.70;;;;;;4993480;28;20042;-69
2021/04/01 03:34:43;;;;;;;7.15;4.35;;;11.90;99.70;;;;;;4992288;28;20041;-68
2021/04/01 03:37:51;;;;;;;7.78;4.70;;;12.00;99.90;;;;;;4992544;28;20481;-68
2021/04/01 03:40:55;;;;;;;8.60;5.00;;;12.00;99.40;;;;;;4993285;28;20037;-68
2021/04/01 03:43:59;;;;;;;12.23;5.30;;;12.00;99.50;;;;;;4981210;28;20037;-68
2021/04/01 03:47:04;;;;;;;13.68;5.38;;;12.00;99.70;;;;;;4992524;28;20053;-68
2021/04/01 03:50:10;;;;;;;15.13;4.78;;;12.00;99.90;;;;;;4992989;28;20057;-68
2021/04/01 03:53:15;;;;;;;11.52;5.07;;;12.00;99.90;;;;;;4992673;28;20054;-68
2021/04/01 03:56:20;;;;;;;9.07;4.47;;;11.90;99.90;;;;;;4992615;28;20382;-68
2021/04/01 03:59:30;;;;;;;6.72;4.97;;;11.80;99.90;;;;;;4992447;28;20053;-68
2021/04/01 04:09:48;;;;;;;16.73;5.00;;;11.70;99.90;;;;;;4992828;28;20049;-68
2021/04/01 04:13:11;;;;;;;14.55;5.43;;;11.60;99.90;;;;;;4980161;28;20045;-67
2021/04/01 04:16:16;;;;;;;12.23;4.93;;;11.50;99.90;;;;;;4978648;28;20041;-67
2021/04/01 04:19:21;;;;;;;9.38;4.95;;;11.40;99.90;;;;;;4992253;28;20049;-68
2021/04/01 04:22:25;;;;;;;9.43;5.50;;;11.30;99.90;;;;;;4991427;28;20042;-68
2021/04/01 04:25:29;;;;;;;12.63;4.85;;;11.20;99.90;;;;;;4991910;28;20045;-68
2021/04/01 04:28:36;;;;;;;11.57;4.35;;;11.20;99.90;;;;;;4979261;28;20049;-67
2021/04/01 04:31:40;;;;;;;9.05;4.30;;;11.30;99.90;;;;;;4991660;28;20385;-68
2021/04/01 04:34:48;;;;;;;12.93;4.82;;;11.40;99.90;;;;;;4991475;28;20045;-67
2021/04/01 04:37:52;;;;;;;9.27;4.70;;;11.40;99.90;;;;;;4991157;28;20520;-68
2021/04/01 04:40:57;;;;;;;8.55;4.45;;;11.20;99.90;;;;;;4990569;28;20788;-68
2021/04/01 04:44:01;;;;;;;8.77;5.15;;;11.00;99.90;;;;;;4979981;28;20057;-68
2021/04/01 04:47:06;;;;;;;9.68;4.90;;;10.80;99.90;;;;;;4990956;28;20045;-68
2021/04/01 04:50:10;;;;;;;8.10;4.82;;;10.70;99.90;;;;;;4991437;28;20045;-67
2021/04/01 04:53:15;;;;;;;9.13;4.72;;;10.60;99.90;;;;;;4990984;28;20053;-67
2021/04/01 04:56:22;;;;;;;12.40;5.50;;;10.50;99.90;;;;;;4991358;28;20081;-68
2021/04/01 04:59:30;;;;;;;11.68;4.75;;;10.50;99.90;;;;;;4991463;28;20049;-68
2021/04/01 05:05:57;;;;;;;11.95;4.75;;;10.40;99.90;;;;;;4989452;28;20045;-68
2021/04/01 05:09:02;;;;;;;15.70;6.32;;;10.40;99.90;;;;;;4980584;28;20050;-67
2021/04/01 05:12:08;;;;;;;15.43;6.30;;;10.50;99.90;;;;;;4979354;28;20378;-68
2021/04/01 05:15:13;;;;;;;15.10;5.15;;;10.50;99.90;;;;;;4990638;28;20073;-68
2021/04/01 05:21:52;;;;;;;11.68;5.72;;;10.60;99.90;;;;;;4979215;28;20049;-67
2021/04/01 05:24:52;;;;;;;13.75;4.75;;;10.70;99.90;;;;;;4982570;28;20046;-68
2021/04/01 05:28:02;;;;;;;11.10;4.80;;;10.70;99.90;;;;;;4970465;28;20066;-68
2021/04/01 05:31:09;;;;;;;11.82;4.85;;;10.80;99.90;;;;;;4981556;28;20061;-68
2021/04/01 05:34:24;;;;;;;12.43;4.32;;;10.90;99.90;;;;;;4973512;28;20852;-67
2021/04/01 05:37:28;;;;;;;13.65;5.30;;;11.10;99.90;;;;;;4971556;28;20054;-68
2021/04/01 05:40:32;;;;;;;15.40;5.50;;;11.20;99.90;;;;;;4971333;28;20370;-67
2021/04/01 05:43:44;;;;;;;6.90;4.50;;;11.30;99.90;;;;;;4986079;28;20050;-68
2021/04/01 05:46:59;;;;;;;6.72;4.40;;;11.50;99.90;;;;;;4985350;28;20041;-68
2021/04/01 05:54:15;;;;;;;6.13;3.60;;;15.90;99.10;;;;;;4981722;28;20065;-68
2021/04/01 06:04:30;;;;;;;5.50;3.05;;;19.40;91.40;;;;;;4982579;28;20045;-68
2021/04/01 06:07:42;;;;;;;6.68;3.65;;;20.50;89.00;;;;;;4981820;28;20389;-68
2021/04/01 06:10:48;;;;;;;11.33;4.37;;;19.70;88.80;;;;;;4975807;28;20042;-68
2021/04/01 06:17:07;;;;;;;8.20;4.88;;;20.40;87.00;;;;;;4972463;28;20057;-68
2021/04/01 06:20:12;;;;;;;12.63;4.47;;;18.80;87.70;;;;;;4982603;28;20049;-68
2021/04/01 06:23:29;;;;;;;12.40;4.53;;;17.90;91.00;;;;;;4977260;28;20046;-68
2021/04/01 06:26:41;;;;;;;8.70;4.75;;;17.70;91.60;;;;;;4980746;28;20828;-67
2021/04/01 06:33:15;;;;;;;17.20;5.25;;;20.60;88.10;;;;;;4984329;28;19914;-67
2021/04/01 06:36:24;;;;;;;6.63;4.07;;;22.40;84.10;;;;;;4979716;28;20054;-68
2021/04/01 06:39:28;;;;;;;8.00;4.65;;;23.30;80.60;;;;;;4981712;28;20505;-68
2021/04/01 06:42:44;;;;;;;6.65;4.25;;;23.30;78.70;;;;;;4990665;28;20041;-68
2021/04/01 06:45:53;;;;;;;12.63;5.22;;;22.90;80.00;;;;;;4990166;28;20045;-67
2021/04/01 06:52:49;;;;;;;15.88;4.72;;;21.90;78.60;;;;;;4987576;28;20053;-68
2021/04/01 07:02:40;;;;;;;13.88;4.97;;;22.20;78.20;;;;;;4981008;28;20393;-68
2021/04/01 07:05:50;;;;;;;7.30;5.15;;;20.30;81.60;;;;;;4978144;28;20053;-68
2021/04/01 07:09:05;;;;;;;8.48;4.97;;;19.50;84.00;;;;;;4978281;28;20038;-67
2021/04/01 07:12:13;;;;;;;11.48;5.50;;;19.30;84.80;;;;;;4978645;28;20057;-67
2021/04/01 07:15:23;;;;;;;12.75;5.47;;;18.40;85.90;;;;;;4984643;28;20057;-65
2021/04/01 07:18:50;;;;;;;9.95;5.50;;;18.70;88.10;;;;;;4988458;28;20045;-68
2021/04/01 07:35:56;;;;;;;8.32;6.65;;;19.90;83.40;;;;;;4988670;28;20053;-68
2021/04/01 07:49:17;;;;;;;10.60;7.60;;;26.10;71.60;;;;;;4982720;28;20377;-67
2021/04/01 07:52:32;;;;;;;13.65;8.95;;;27.40;68.20;;;;;;4975613;28;20041;-68
2021/04/01 08:05:56;;;;;;;15.77;8.00;;;29.90;59.40;;;;;;4980540;28;20049;-68
2021/04/01 08:09:04;;;;;;;15.50;8.65;;;29.60;60.10;;;;;;4992108;28;20049;-67
2021/04/01 08:12:25;;;;;;;12.88;7.38;;;30.40;56.70;;;;;;4982645;28;20050;-67
2021/04/01 08:15:35;;;;;;;15.27;7.15;;;31.30;55.60;;;;;;4984108;28;20493;-68
2021/04/01 08:18:41;;;;;;;11.30;7.10;;;31.80;52.90;;;;;;4983640;28;20511;-68
2021/04/01 08:21:49;;;;;;;10.63;7.95;;;31.60;52.70;;;;;;4988775;28;20496;-67
2021/04/01 08:25:03;;;;;;;10.88;7.38;;;31.90;51.60;;;;;;4987948;28;20045;-68
2021/04/01 08:35:02;;;;;;;12.18;6.40;;;30.20;53.30;;;;;;4991624;28;20498;-68
2021/04/01 08:38:11;;;;;;;11.65;6.70;;;32.70;50.80;;;;;;4985698;28;20054;-67
2021/04/01 08:41:34;;;;;;;11.88;6.70;;;34.00;47.80;;;;;;4968832;28;20591;-68
2021/04/01 08:45:00;;;;;;;9.90;6.95;;;34.70;47.80;;;;;;4983341;28;20045;-68
2021/04/01 08:48:23;;;;;;;10.13;6.95;;;35.60;45.60;;;;;;4980013;28;20042;-69
2021/04/01 08:51:43;;;;;;;8.20;6.65;;;35.20;45.50;;;;;;4979016;28;20058;-68
2021/04/01 08:55:16;;;;;;;14.20;7.43;;;35.40;44.90;;;;;;4974218;28;20034;-68
2021/04/01 08:58:44;;;;;;;11.40;7.18;;;35.30;44.50;;;;;;4974259;28;20045;-68
2021/04/01 09:01:55;;;;;;;11.95;7.15;;;36.50;44.70;;;;;;4986180;28;20062;-65
2021/04/01 09:05:02;;;;;;;12.63;7.25;;;37.10;43.80;;;;;;4979846;28;20081;-68
2021/04/01 09:08:08;;;;;;;8.02;6.20;;;38.20;43.00;;;;;;4972952;28;20398;-67
2021/04/01 09:11:12;;;;;;;10.13;5.88;;;38.70;42.00;;;;;;4979509;28;20042;-67
2021/04/01 09:14:27;;;;;;;11.32;6.00;;;38.40;41.50;;;;;;4981674;28;20045;-67
2021/04/01 09:17:34;;;;;;;10.68;5.82;;;37.60;42.00;;;;;;4975886;28;20041;-67
2021/04/01 09:20:50;;;;;;;11.05;6.25;;;37.60;42.20;;;;;;4974127;28;20053;-67
2021/04/01 09:23:55;;;;;;;11.65;5.40;;;38.50;42.40;;;;;;4972821;28;20042;-67
2021/04/01 09:27:00;;;;;;;7.78;5.70;;;36.80;42.30;;;;;;4976377;28;20053;-67
2021/04/01 09:30:09;;;;;;;8.40;5.47;;;37.10;42.80;;;;;;4990446;28;20049;-67
2021/04/01 09:33:25;;;;;;;10.50;5.30;;;38.20;41.70;;;;;;4974542;28;20081;-68
2021/04/01 09:36:38;;;;;;;13.90;4.85;;;39.40;41.40;;;;;;4973938;28;20398;-68
2021/04/01 09:39:43;;;;;;;8.98;6.45;;;39.40;40.80;;;;;;4972923;28;20053;-67
2021/04/01 09:42:47;;;;;;;10.15;6.65;;;40.30;40.50;;;;;;4979469;28;20493;-67
2021/04/01 09:45:55;;;;;;;6.95;5.45;;;38.70;38.80;;;;;;4975254;28;20058;-67
2021/04/01 09:49:03;;;;;;;12.02;4.10;;;38.80;40.30;;;;;;4971497;28;20046;-68
2021/04/01 09:52:12;;;;;;;10.93;3.70;;;40.30;39.50;;;;;;4978646;28;20041;-67
2021/04/01 09:55:16;;;;;;;7.43;4.20;;;41.40;39.60;;;;;;4988689;28;20030;-67
2021/04/01 09:58:31;;;;;;;5.10;3.30;;;42.20;38.50;;;;;;4990244;28;20496;-65
2021/04/01 10:01:38;;;;;;;5.90;2.90;;;42.80;38.00;;;;;;4990266;28;20046;-65
2021/04/01 10:04:51;;;;;;;8.20;3.35;;;43.50;38.20;;;;;;4986881;28;20066;-66
2021/04/01 10:07:57;;;;;;;4.70;2.80;;;44.20;38.10;;;;;;4985225;28;20122;-66
2021/04/01 10:11:26;;;;;;;5.70;2.58;;;44.00;37.30;;;;;;4976047;28;20042;-66
2021/04/01 10:14:32;;;;;;;;;;;44.60;37.80;;;;;;4980531;28;20049;-66
2021/04/01 10:17:38;;;;;;;5.78;2.63;;;44.70;37.20;;;;;;4993148;28;19910;-65
2021/04/01 10:20:51;;;;;;;8.95;2.30;;;45.20;36.20;;;;;;4989037;28;20045;-65
2021/04/01 10:23:59;;;;;;;6.28;2.78;;;44.90;36.70;;;;;;4990355;28;20474;-67
2021/04/01 10:27:20;;;;;;;6.68;2.90;;;43.90;36.70;;;;;;4988643;28;20057;-66
2021/04/01 10:30:33;;;;;;;4.57;2.90;;;43.70;37.10;;;;;;4982086;28;20493;-67
2021/04/01 10:33:48;;;;;;;3.95;2.50;;;44.60;36.70;;;;;;4977226;28;20037;-66
2021/04/01 10:36:54;;;;;;;5.78;2.75;;;45.20;36.40;;;;;;4978872;28;20046;-66
2021/04/01 10:40:08;;;;;;;6.53;2.83;;;45.40;36.10;;;;;;4979310;28;20050;-66
2021/04/01 10:43:13;;;;;;;4.35;2.42;;;44.20;36.30;;;;;;4977569;28;20038;-66
2021/04/01 10:46:20;;;;;;;6.60;3.15;;;44.50;36.30;;;;;;4976639;28;20061;-66
2021/04/01 10:49:38;;;;;;;5.15;2.72;;;44.60;37.10;;;;;;4977411;28;20528;-65
2021/04/01 10:52:43;;;;;;;5.72;2.85;;;44.70;35.80;;;;;;4974927;28;20042;-65
2021/04/01 10:55:53;;;;;;;5.40;2.70;;;44.30;36.80;;;;;;4972669;28;20049;-66
2021/04/01 10:58:59;;;;;;;4.45;2.40;;;44.30;36.10;;;;;;4967319;28;20489;-66
2021/04/01 11:02:16;;;;;;;5.75;2.70;;;44.30;35.80;;;;;;4982621;28;20049;-65
2021/04/01 11:05:25;;;;;;;6.15;3.08;;;45.20;36.20;;;;;;4987282;28;20061;-66
2021/04/01 11:08:39;;;;;;;6.25;2.88;;;45.20;35.80;;;;;;4991098;28;20061;-66
2021/04/01 11:15:04;;;;;;;6.63;2.42;;;42.60;36.70;;;;;;4989359;28;20030;-66
2021/04/01 11:18:18;;;;;;;4.32;2.60;;;42.20;36.60;;;;;;4981809;28;20037;-65
2021/04/01 11:21:23;;;;;;;7.15;2.95;;;41.40;37.90;;;;;;4984258;28;20061;-68
2021/04/01 11:24:36;;;;;;;3.97;2.70;;;39.20;37.40;;;;;;4991278;28;20057;-67
2021/04/01 11:27:54;;;;;;;8.68;3.30;;;39.10;39.00;;;;;;4985798;28;20057;-67
2021/04/01 11:30:58;;;;;;;4.53;2.65;;;39.60;39.30;;;;;;4986004;28;20394;-68
2021/04/01 11:34:04;;;;;;;5.20;2.97;;;39.90;38.70;;;;;;4992179;28;20050;-67
2021/04/01 11:37:11;;;;;;;8.65;3.22;;;40.30;38.30;;;;;;4978517;28;20041;-67
2021/04/01 11:40:15;;;;;;;9.45;3.25;;;40.40;39.00;;;;;;4992237;28;20050;-68
2021/04/01 11:43:25;;;;;;;6.35;2.85;;;40.30;39.10;;;;;;4989866;28;20049;-68
2021/04/01 11:46:31;;;;;;;10.73;3.78;;;38.90;39.40;;;;;;4990456;28;20046;-67
2021/04/01 11:49:36;;;;;;;9.75;4.03;;;38.40;40.50;;;;;;4992677;28;20523;-68
2021/04/01 11:52:40;;;;;;;7.85;2.97;;;38.60;40.30;;;;;;4990720;28;20465;-67
2021/04/01 11:55:52;;;;;;;5.07;3.45;;;39.40;40.90;;;;;;4984180;28;20041;-68
2021/04/01 11:59:13;;;;;;;3.95;2.70;;;39.90;40.40;;;;;;4992104;28;20049;-67
2021/04/01 12:02:19;;;;;;;;;;;40.30;39.90;;;;;;4992871;28;20049;-67
2021/04/01 12:05:26;;;;;;;4.90;2.90;;;39.20;39.80;;;;;;4990960;28;19910;-68
2021/04/01 12:08:31;;;;;;;5.65;2.60;;;38.80;40.30;;;;;;4991134;28;20061;-67
2021/04/01 12:11:43;;;;;;;9.50;3.25;;;37.90;41.10;;;;;;4983919;28;20401;-67
2021/04/01 12:14:47;;;;;;;7.75;3.10;;;37.60;41.40;;;;;;4990093;28;20049;-67
2021/04/01 12:17:55;;;;;;;5.03;2.97;;;36.10;40.50;;;;;;4982277;28;20041;-67
2021/04/01 12:21:01;;;;;;;7.80;3.70;;;35.10;43.80;;;;;;4992536;28;20385;-67
2021/04/01 12:24:06;;;;;;;6.90;3.50;;;35.30;43.10;;;;;;4988392;28;20492;-67
2021/04/01 12:27:10;;;;;;;6.68;3.13;;;35.40;43.90;;;;;;4990924;28;20429;-66
2021/04/01 12:30:22;;;;;;;6.78;3.13;;;35.30;42.80;;;;;;4978303;28;20045;-67
2021/04/01 12:33:29;;;;;;;5.00;2.80;;;34.90;42.60;;;;;;4991927;28;20037;-67
2021/04/01 12:36:36;;;;;;;6.82;3.08;;;34.50;43.40;;;;;;4987004;28;20096;-67
2021/04/01 12:39:41;;;;;;;6.78;2.85;;;34.50;43.50;;;;;;4989979;28;20053;-66
2021/04/01 12:42:46;;;;;;;5.05;3.22;;;34.40;42.90;;;;;;4972214;28;20393;-67
2021/04/01 12:45:54;;;;;;;5.53;2.72;;;33.80;42.70;;;;;;4990395;28;20647;-67
2021/04/01 12:49:00;;;;;;;5.20;2.65;;;34.40;42.90;;;;;;4982454;28;20049;-67
2021/04/01 12:52:06;;;;;;;6.68;2.90;;;35.10;42.30;;;;;;4990834;28;20054;-68
2021/04/01 12:55:13;;;;;;;5.47;2.65;;;36.10;40.80;;;;;;4990655;28;20057;-67
2021/04/01 12:58:38;;;;;;;7.28;2.72;;;36.50;40.20;;;;;;4989742;28;20067;-67
2021/04/01 13:01:46;;;;;;;5.07;2.97;;;36.70;40.00;;;;;;4984210;28;20049;-68
2021/04/01 13:04:59;;;;;;;7.70;3.15;;;36.70;39.80;;;;;;4991519;28;20045;-68
2021/04/01 13:11:21;;;;;;;4.53;2.65;;;35.70;39.90;;;;;;4990472;28;20065;-67
2021/04/01 13:14:26;;;;;;;5.72;2.80;;;36.00;39.70;;;;;;4978082;28;20045;-67
2021/04/01 13:17:31;;;;;;;6.30;2.60;;;36.90;38.70;;;;;;4987420;28;20045;-68
2021/04/01 13:20:36;;;;;;;3.65;2.70;;;36.90;39.30;;;;;;4985363;28;20539;-68
2021/04/01 13:23:45;;;;;;;7.88;2.80;;;37.30;38.50;;;;;;4991397;28;20049;-67
2021/04/01 13:26:51;;;;;;;6.78;3.10;;;37.70;38.90;;;;;;4976892;28;20373;-68
2021/04/01 13:30:00;;;;;;;4.85;2.88;;;37.80;39.30;;;;;;4989777;28;20037;-67
2021/04/01 13:33:11;;;;;;;7.68;2.53;;;38.10;38.30;;;;;;4990450;28;20058;-67
2021/04/01 13:36:31;;;;;;;6.18;3.08;;;36.90;37.00;;;;;;4983887;28;20381;-67
2021/04/01 13:39:47;;;;;;;5.25;2.97;;;36.90;38.40;;;;;;4986602;28;20042;-68
2021/04/01 13:42:55;;;;;;;4.07;2.58;;;37.60;38.30;;;;;;4989884;28;20045;-68
2021/04/01 13:45:59;;;;;;;4.25;2.70;;;37.80;37.90;;;;;;4980932;28;20049;-68
2021/04/01 13:49:05;;;;;;;6.90;3.45;;;38.20;39.50;;;;;;4989467;28;20041;-68
2021/04/01 13:52:15;;;;;;;6.03;2.70;;;38.10;38.00;;;;;;4988993;28;20045;-68
2021/04/01 13:55:32;;;;;;;6.13;2.80;;;38.50;37.30;;;;;;4989957;28;20393;-68
2021/04/01 13:59:18;;;;;;;7.18;3.17;;;38.50;37.40;;;;;;4990433;28;20054;-67
2021/04/01 14:09:34;;;;;;;5.88;3.15;;;37.40;37.80;;;;;;4981799;28;20049;-67
2021/04/01 14:12:41;;;;;;;7.07;3.10;;;37.10;38.80;;;;;;4990679;28;20038;-67
2021/04/01 14:15:46;;;;;;;5.20;3.05;;;36.20;39.50;;;;;;4988344;28;20421;-67
2021/04/01 14:18:52;;;;;;;6.13;3.08;;;35.90;40.30;;;;;;4989264;28;20049;-67
2021/04/01 14:22:00;;;;;;;9.70;3.33;;;35.20;40.50;;;;;;4966581;28;20061;-67
2021/04/01 14:25:12;;;;;;;4.30;2.75;;;34.70;41.60;;;;;;4980365;28;20480;-67
2021/04/01 14:28:17;;;;;;;3.90;2.45;;;34.10;41.10;;;;;;4988482;28;20057;-66
2021/04/01 14:31:21;;;;;;;3.63;2.20;;;32.50;39.90;;;;;;4989799;28;20048;-67
2021/04/01 14:34:27;;;;;;;5.18;2.47;;;32.00;42.20;;;;;;4991064;28;20057;-66
2021/04/01 14:37:33;;;;;;;8.45;2.80;;;31.70;42.70;;;;;;4987892;28;20057;-67
2021/04/01 14:40:50;;;;;;;7.82;2.60;;;31.30;41.80;;;;;;4976800;28;20037;-66
2021/04/01 14:44:07;;;;;;;6.20;2.90;;;30.90;43.90;;;;;;4977511;28;20049;-67
2021/04/01 14:47:13;;;;;;;6.95;2.47;;;30.00;43.50;;;;;;4988618;28;20061;-66
2021/04/01 14:50:17;;;;;;;4.25;2.33;;;29.30;44.50;;;;;;4989353;28;20705;-66
2021/04/01 14:53:43;;;;;;;7.60;3.08;;;28.90;45.40;;;;;;4989058;28;20057;-67
2021/04/01 14:56:52;;;;;;;4.47;2.25;;;28.40;46.20;;;;;;4986245;28;20045;-66
2021/04/01 14:59:58;;;;;;;7.80;2.40;;;27.90;46.20;;;;;;4989890;28;20061;-66
2021/04/01 15:03:02;;;;;;;12.05;2.72;;;27.50;46.20;;;;;;4990415;28;20061;-67
2021/04/01 15:06:11;;;;;;;4.07;2.22;;;27.70;47.70;;;;;;4991825;28;20053;-66
2021/04/01 15:09:20;;;;;;;5.00;2.10;;;27.80;47.30;;;;;;4988814;28;20052;-67
2021/04/01 15:12:25;;;;;;;5.18;2.33;;;27.80;47.70;;;;;;4989013;28;20061;-67
2021/04/01 15:15:31;;;;;;;7.32;2.20;;;28.00;46.90;;;;;;4977194;28;20061;-66
2021/04/01 15:18:37;;;;;;;6.13;2.15;;;28.00;47.40;;;;;;4981487;28;20045;-67
2021/04/01 15:21:42;;;;;;;5.28;2.13;;;28.10;45.90;;;;;;4981972;28;20355;-67
2021/04/01 15:24:47;;;;;;;7.85;2.78;;;28.10;45.70;;;;;;4980420;28;20053;-66
2021/04/01 15:27:51;;;;;;;5.18;2.30;;;27.90;45.40;;;;;;4981017;28;20522;-67
2021/04/01 15:30:55;;;;;;;5.00;2.05;;;27.70;45.50;;;;;;4980252;28;20041;-66
2021/04/01 15:33:59;;;;;;;10.15;2.10;;;27.60;45.40;;;;;;4977241;28;20041;-66
2021/04/01 15:37:04;;;;;;;10.30;2.35;;;27.60;47.00;;;;;;4978913;28;20555;-67
2021/04/01 15:40:10;;;;;;;6.63;2.22;;;27.60;46.20;;;;;;4977516;28;20045;-67
2021/04/01 15:43:16;;;;;;;4.97;1.55;;;27.30;44.40;;;;;;4980475;28;20053;-67
2021/04/01 15:46:24;;;;;;;4.47;1.50;;;27.10;45.20;;;;;;4976782;28;20050;-67
2021/04/01 15:49:28;;;;;;;3.03;1.48;;;26.80;43.90;;;;;;4981109;28;20053;-67
2021/04/01 15:52:33;;;;;;;6.78;1.48;;;26.60;43.70;;;;;;4981349;28;20042;-66
2021/04/01 15:55:38;;;;;;;2.88;1.30;;;26.60;44.90;;;;;;4979266;28;20030;-67
2021/04/01 15:58:42;;;;;;;5.10;1.50;;;26.50;44.10;;;;;;4980246;28;20667;-67
2021/04/01 16:01:46;;;;;;;3.83;1.45;;;26.30;44.20;;;;;;4982422;28;20053;-66
2021/04/01 16:04:51;;;;;;;5.80;1.60;;;26.10;44.60;;;;;;4987406;28;20037;-66
2021/04/01 16:07:55;;;;;;;5.47;1.63;;;25.90;44.40;;;;;;4982961;28;20042;-67
2021/04/01 16:11:02;;;;;;;3.83;1.70;;;25.70;44.80;;;;;;4980003;28;20045;-66
2021/04/01 16:14:07;;;;;;;4.28;1.70;;;25.50;44.60;;;;;;4981130;28;20054;-67
2021/04/01 16:17:12;;;;;;;3.47;1.60;;;25.30;46.10;;;;;;4979284;28;20049;-67
2021/04/01 16:20:17;;;;;;;3.80;1.48;;;25.10;46.30;;;;;;4980075;28;20041;-67
2021/04/01 16:23:24;;;;;;;5.13;1.60;;;24.90;46.60;;;;;;4978752;28;20111;-66
2021/04/01 16:26:29;;;;;;;3.95;1.35;;;24.80;47.00;;;;;;4978996;28;20045;-66
2021/04/01 16:29:35;;;;;;;5.28;1.83;;;24.70;47.00;;;;;;4974230;28;20081;-67
2021/04/01 16:32:45;;;;;;;5.50;1.83;;;24.60;47.30;;;;;;4980696;28;20061;-67
2021/04/01 16:35:54;;;;;;;2.97;1.52;;;24.50;46.90;;;;;;4978760;28;20034;-67
2021/04/01 16:38:58;;;;;;;7.70;1.63;;;24.40;47.60;;;;;;4979419;28;20057;-66
2021/04/01 16:42:03;;;;;;;5.82;2.10;;;24.10;47.20;;;;;;4979423;28;20037;-67
2021/04/01 16:45:09;;;;;;;3.58;1.70;;;23.80;47.60;;;;;;4981918;28;20053;-66
2021/04/01 16:48:14;;;;;;;3.60;1.50;;;23.60;47.60;;;;;;4982020;28;20505;-67
2021/04/01 16:51:22;;;;;;;5.25;1.63;;;23.50;48.60;;;;;;4985634;28;20045;-67
2021/04/01 16:54:32;;;;;;;3.35;1.40;;;23.30;49.00;;;;;;4984818;28;20054;-67
2021/04/01 16:57:40;;;;;;;6.20;1.60;;;23.10;49.30;;;;;;4983790;28;20053;-67
2021/04/01 17:00:45;;;;;;;3.17;1.40;;;22.90;49.50;;;;;;4986620;28;20049;-67
2021/04/01 17:03:49;;;;;;;3.78;1.38;;;22.60;49.80;;;;;;4985889;28;20049;-66
2021/04/01 17:06:56;;;;;;;4.22;1.67;;;22.40;50.90;;;;;;4983008;28;20057;-68
2021/04/01 17:10:00;;;;;;;3.72;1.55;;;22.10;51.00;;;;;;4994758;28;20536;-67
2021/04/01 17:13:05;;;;;;;6.50;1.42;;;21.90;51.80;;;;;;4979873;28;20049;-68
2021/04/01 17:16:10;;;;;;;5.22;1.70;;;21.70;52.10;;;;;;4979385;28;20033;-67
2021/04/01 17:19:14;;;;;;;4.53;1.67;;;21.50;52.80;;;;;;4986156;28;20049;-68
2021/04/01 17:22:18;;;;;;;7.05;2.05;;;21.30;53.10;;;;;;4987821;28;20057;-67
2021/04/01 17:25:23;;;;;;;5.18;1.95;;;21.10;52.50;;;;;;4985087;28;20037;-68
2021/04/01 17:28:29;;;;;;;7.10;1.70;;;20.90;53.20;;;;;;4989936;28;20046;-67
2021/04/01 17:31:35;;;;;;;4.65;1.80;;;20.70;53.70;;;;;;4986811;28;20041;-67
2021/04/01 17:34:40;;;;;;;13.13;2.15;;;20.50;54.10;;;;;;4998234;28;20037;-67
2021/04/01 17:37:47;;;;;;;5.28;1.95;;;20.20;54.50;;;;;;4986885;28;20049;-67
2021/04/01 17:40:51;;;;;;;4.07;1.50;;;20.00;54.50;;;;;;4984752;28;20049;-67
2021/04/01 17:43:57;;;;;;;4.28;2.22;;;19.80;55.30;;;;;;4988993;28;20050;-67
2021/04/01 17:47:03;;;;;;;10.27;2.60;;;19.70;55.50;;;;;;4981973;28;20045;-67
2021/04/01 17:50:10;;;;;;;7.75;2.33;;;19.50;55.90;;;;;;4979498;28;20045;-67
2021/04/01 17:53:15;;;;;;;5.32;1.90;;;19.40;56.30;;;;;;4976505;28;20038;-67